Time;durP1;ratioP1;P1;durP2;ratioP2;P2;SDS_P1;SDS_P2;PMS_P1;PMS_P2;Temp;Humidity;BMP_temperature;BMP_pressure;BME280_temperature;BME280_humidity;BME280_pressure;Samples;Min_cycle;Max_cycle;Signal;HPM_P1;HPM_P2
2021/06/09 00:01:57;;;;;;;3.43;2.30;;;;;;;;;;5136405;28;20454;-70
2021/06/09 00:04:25;;;;;;;4.50;2.40;;;;;;;;;;5137370;27;20456;-70
2021/06/09 00:06:53;;;;;;;2.40;1.73;;;;;;;;;;5137424;27;20861;-70
2021/06/09 00:09:20;;;;;;;3.53;2.20;;;;;;;;;;5136897;28;20984;-70
2021/06/09 00:11:48;;;;;;;4.43;1.90;;;;;;;;;;5137603;28;20474;-70
2021/06/09 00:14:18;;;;;;;2.90;1.97;;;;;;;;;;5137150;27;20441;-70
2021/06/09 00:16:45;;;;;;;4.57;2.10;;;;;;;;;;5142158;27;20449;-70
2021/06/09 00:19:16;;;;;;;3.60;2.00;;;;;;;;;;5157949;27;20716;-70
2021/06/09 00:21:47;;;;;;;3.90;2.13;;;;;;;;;;5156134;27;20796;-70
2021/06/09 00:24:16;;;;;;;3.10;2.17;;;;;;;;;;5158265;27;20879;-70
2021/06/09 00:26:43;;;;;;;3.23;2.40;;;;;;;;;;5157895;27;20457;-70
2021/06/09 00:29:11;;;;;;;3.97;2.60;;;;;;;;;;5154487;27;20475;-71
2021/06/09 00:31:40;;;;;;;3.10;2.37;;;;;;;;;;5137377;27;20464;-71
2021/06/09 00:34:12;;;;;;;3.17;2.10;;;;;;;;;;5138139;27;20453;-70
2021/06/09 00:36:39;;;;;;;3.80;2.30;;;;;;;;;;5140894;27;20457;-71
2021/06/09 00:39:07;;;;;;;3.10;2.20;;;;;;;;;;5140749;27;20468;-70
2021/06/09 00:41:35;;;;;;;3.67;2.10;;;;;;;;;;5141047;27;20468;-70
2021/06/09 00:44:04;;;;;;;3.23;2.23;;;;;;;;;;5140790;27;20809;-70
2021/06/09 00:46:32;;;;;;;3.37;2.43;;;;;;;;;;5140986;27;20488;-70
2021/06/09 00:49:01;;;;;;;3.80;2.73;;;;;;;;;;5120263;27;20500;-70
2021/06/09 00:51:28;;;;;;;3.77;2.27;;;;;;;;;;5119981;28;20466;-70
2021/06/09 00:53:58;;;;;;;3.20;2.23;;;;;;;;;;5120104;27;20443;-70
2021/06/09 00:56:26;;;;;;;3.87;2.20;;;;;;;;;;5142060;27;20480;-70
2021/06/09 00:58:54;;;;;;;3.90;2.57;;;;;;;;;;5140187;27;20478;-70
2021/06/09 01:01:23;;;;;;;6.97;3.47;;;;;;;;;;5140513;27;20460;-71
2021/06/09 01:03:53;;;;;;;3.67;2.43;;;;;;;;;;5139888;27;20460;-72
2021/06/09 01:06:22;;;;;;;4.23;2.73;;;;;;;;;;5140272;27;20453;-70
2021/06/09 01:08:52;;;;;;;3.90;2.90;;;;;;;;;;5140278;27;20489;-71
2021/06/09 01:11:22;;;;;;;3.80;2.00;;;;;;;;;;5140120;27;20457;-70
2021/06/09 01:13:50;;;;;;;4.00;2.43;;;;;;;;;;5139731;27;20538;-71
2021/06/09 01:16:18;;;;;;;3.80;2.63;;;;;;;;;;5140099;27;20454;-70
2021/06/09 01:18:46;;;;;;;4.03;2.40;;;;;;;;;;5144824;27;20442;-71
2021/06/09 01:21:14;;;;;;;3.37;2.33;;;;;;;;;;5138786;27;20506;-70
2021/06/09 01:23:43;;;;;;;3.63;2.37;;;;;;;;;;5139611;27;20511;-70
2021/06/09 01:26:11;;;;;;;4.33;2.30;;;;;;;;;;5139450;27;20458;-70
2021/06/09 01:28:38;;;;;;;2.83;2.10;;;;;;;;;;5139787;27;20492;-70
2021/06/09 01:31:06;;;;;;;4.73;3.37;;;;;;;;;;5139798;27;20442;-71
2021/06/09 01:33:34;;;;;;;3.27;2.30;;;;;;;;;;5139133;27;20849;-71
2021/06/09 01:36:01;;;;;;;3.00;2.30;;;;;;;;;;5146453;27;20528;-70
2021/06/09 01:38:29;;;;;;;4.10;2.70;;;;;;;;;;5158794;27;20514;-70
2021/06/09 01:40:58;;;;;;;4.87;2.70;;;;;;;;;;5119195;28;20834;-70
2021/06/09 01:43:25;;;;;;;4.43;2.60;;;;;;;;;;5130390;27;20462;-70
2021/06/09 01:45:53;;;;;;;3.40;1.97;;;;;;;;;;5139709;27;20446;-70
2021/06/09 01:48:20;;;;;;;3.80;2.70;;;;;;;;;;5139094;27;20486;-71
2021/06/09 01:50:48;;;;;;;4.67;2.50;;;;;;;;;;5139372;27;20743;-70
2021/06/09 01:53:16;;;;;;;3.40;2.20;;;;;;;;;;5138969;27;20458;-70
2021/06/09 01:55:43;;;;;;;3.90;2.07;;;;;;;;;;5139365;27;20446;-70
2021/06/09 01:58:12;;;;;;;3.60;2.00;;;;;;;;;;5145669;27;20449;-70
2021/06/09 02:00:42;;;;;;;9.10;2.40;;;;;;;;;;5157800;27;20518;-70
2021/06/09 02:03:09;;;;;;;4.63;1.90;;;;;;;;;;5160058;27;20465;-71
2021/06/09 02:05:37;;;;;;;4.03;2.83;;;;;;;;;;5159337;27;20456;-70
2021/06/09 02:08:06;;;;;;;3.40;2.23;;;;;;;;;;5159877;27;20488;-70
2021/06/09 02:10:33;;;;;;;4.63;3.37;;;;;;;;;;5159483;27;20455;-71
2021/06/09 02:13:01;;;;;;;3.17;1.77;;;;;;;;;;5159255;27;20457;-70
2021/06/09 02:15:30;;;;;;;3.70;1.70;;;;;;;;;;5159418;27;20449;-70
2021/06/09 02:18:07;;;;;;;3.70;1.80;;;;;;;;;;5145606;27;20457;-70
2021/06/09 02:20:35;;;;;;;5.33;3.63;;;;;;;;;;5138664;27;20450;-70
2021/06/09 02:23:02;;;;;;;3.97;2.37;;;;;;;;;;5139049;27;20465;-71
2021/06/09 02:25:30;;;;;;;3.23;1.97;;;;;;;;;;5138558;27;20442;-70
2021/06/09 02:27:58;;;;;;;3.17;2.20;;;;;;;;;;5138436;27;20490;-71
2021/06/09 02:30:28;;;;;;;3.30;2.20;;;;;;;;;;5138862;27;20449;-72
2021/06/09 02:32:57;;;;;;;3.90;2.50;;;;;;;;;;5138279;27;20449;-70
2021/06/09 02:35:24;;;;;;;9.33;2.20;;;;;;;;;;5138147;27;20457;-70
2021/06/09 02:37:52;;;;;;;3.53;2.10;;;;;;;;;;5138405;27;20466;-70
2021/06/09 02:40:20;;;;;;;4.80;1.83;;;;;;;;;;5138067;27;20458;-70
2021/06/09 02:42:47;;;;;;;3.00;2.13;;;;;;;;;;5138155;27;20450;-70
2021/06/09 02:45:16;;;;;;;4.00;2.57;;;;;;;;;;5137873;27;20453;-70
2021/06/09 02:47:46;;;;;;;3.70;1.67;;;;;;;;;;5137755;27;20479;-71
2021/06/09 02:50:15;;;;;;;5.00;2.40;;;;;;;;;;5137920;27;20834;-70
2021/06/09 02:52:46;;;;;;;4.37;2.70;;;;;;;;;;5137984;27;20481;-70
2021/06/09 02:55:16;;;;;;;3.07;2.00;;;;;;;;;;5138313;27;20502;-70
2021/06/09 02:57:48;;;;;;;3.87;2.30;;;;;;;;;;5137555;27;20438;-70
2021/06/09 03:00:16;;;;;;;5.80;2.30;;;;;;;;;;5138064;27;20526;-70
2021/06/09 03:02:47;;;;;;;3.70;2.47;;;;;;;;;;5158332;27;20519;-70
2021/06/09 03:05:22;;;;;;;3.10;1.70;;;;;;;;;;5158671;27;20445;-70
2021/06/09 03:07:56;;;;;;;3.57;2.30;;;;;;;;;;5158312;27;20472;-70
2021/06/09 03:10:28;;;;;;;3.43;2.47;;;;;;;;;;5158469;27;20444;-70
2021/06/09 03:13:03;;;;;;;2.47;1.87;;;;;;;;;;5158252;27;20461;-71
2021/06/09 03:15:36;;;;;;;3.23;2.27;;;;;;;;;;5158182;27;20448;-71
2021/06/09 03:18:05;;;;;;;3.70;2.03;;;;;;;;;;5157999;27;20533;-70
2021/06/09 03:20:37;;;;;;;3.37;2.20;;;;;;;;;;5142196;27;20757;-71
2021/06/09 03:23:07;;;;;;;4.23;2.23;;;;;;;;;;5137605;27;20461;-70
2021/06/09 03:25:38;;;;;;;3.57;1.77;;;;;;;;;;5137765;27;20449;-70
2021/06/09 03:28:16;;;;;;;4.00;2.20;;;;;;;;;;5136940;28;20568;-71
2021/06/09 03:30:44;;;;;;;8.80;2.50;;;;;;;;;;5137681;28;20465;-70
2021/06/09 03:33:13;;;;;;;4.87;2.70;;;;;;;;;;5137472;28;20517;-70
2021/06/09 03:35:44;;;;;;;3.67;1.97;;;;;;;;;;5138794;27;20788;-70
2021/06/09 03:38:13;;;;;;;3.17;2.17;;;;;;;;;;5158348;27;20724;-70
2021/06/09 03:40:43;;;;;;;3.23;1.90;;;;;;;;;;5156106;27;20468;-70
2021/06/09 03:43:12;;;;;;;3.27;2.33;;;;;;;;;;5159107;27;20444;-70
2021/06/09 03:45:42;;;;;;;5.10;2.57;;;;;;;;;;5152804;27;20450;-69
2021/06/09 03:48:11;;;;;;;4.00;2.57;;;;;;;;;;5137139;27;20489;-70
2021/06/09 03:50:40;;;;;;;2.60;2.10;;;;;;;;;;5137189;27;20454;-72
2021/06/09 03:53:09;;;;;;;2.60;2.10;;;;;;;;;;5157886;27;20452;-71
2021/06/09 03:55:37;;;;;;;3.30;2.17;;;;;;;;;;5153186;27;20885;-70
2021/06/09 03:58:06;;;;;;;3.30;2.20;;;;;;;;;;5138592;27;20441;-70
2021/06/09 04:00:33;;;;;;;3.10;2.50;;;;;;;;;;5140433;27;20453;-71
2021/06/09 04:03:01;;;;;;;7.73;2.47;;;;;;;;;;5146127;27;20450;-70
2021/06/09 04:05:29;;;;;;;5.30;2.07;;;;;;;;;;5136797;27;20868;-71
2021/06/09 04:07:59;;;;;;;2.90;2.40;;;;;;;;;;5137000;27;20477;-71
2021/06/09 04:10:32;;;;;;;4.43;2.70;;;;;;;;;;5138941;27;20469;-71
2021/06/09 04:13:00;;;;;;;5.07;2.50;;;;;;;;;;5156411;27;20823;-72
2021/06/09 04:15:31;;;;;;;2.50;2.00;;;;;;;;;;5141876;27;20453;-71
2021/06/09 04:17:59;;;;;;;3.50;2.17;;;;;;;;;;5140818;27;20475;-70
2021/06/09 04:20:28;;;;;;;3.53;2.50;;;;;;;;;;5140385;27;20453;-70
2021/06/09 04:22:56;;;;;;;3.40;2.60;;;;;;;;;;5140710;27;20445;-71
2021/06/09 04:25:23;;;;;;;3.37;2.37;;;;;;;;;;5145668;27;20464;-71
2021/06/09 04:27:53;;;;;;;5.33;2.00;;;;;;;;;;5140790;27;20464;-71
2021/06/09 04:30:21;;;;;;;4.37;2.40;;;;;;;;;;5140368;27;20546;-71
2021/06/09 04:32:49;;;;;;;4.50;2.70;;;;;;;;;;5140466;27;20502;-71
2021/06/09 04:35:19;;;;;;;3.03;1.97;;;;;;;;;;5140368;27;20481;-71
2021/06/09 04:37:47;;;;;;;2.90;2.33;;;;;;;;;;5140199;27;20449;-71
2021/06/09 04:40:20;;;;;;;5.03;2.83;;;;;;;;;;5139950;27;20449;-71
2021/06/09 04:42:48;;;;;;;3.27;2.50;;;;;;;;;;5140053;27;20831;-71
2021/06/09 04:45:18;;;;;;;3.00;1.93;;;;;;;;;;5139963;27;20783;-71
2021/06/09 04:47:45;;;;;;;3.40;2.20;;;;;;;;;;5139713;27;20453;-71
2021/06/09 04:50:13;;;;;;;4.10;2.13;;;;;;;;;;5139617;27;20466;-71
2021/06/09 04:52:40;;;;;;;2.53;2.03;;;;;;;;;;5139815;27;20748;-71
2021/06/09 04:55:08;;;;;;;2.50;2.07;;;;;;;;;;5123932;27;20530;-70
2021/06/09 04:57:39;;;;;;;2.50;1.93;;;;;;;;;;5119312;28;20451;-71
2021/06/09 05:00:07;;;;;;;2.60;1.70;;;;;;;;;;5118819;28;20788;-71
2021/06/09 05:02:36;;;;;;;5.20;2.17;;;;;;;;;;5117893;28;20450;-71
2021/06/09 05:05:04;;;;;;;3.03;2.23;;;;;;;;;;5117240;28;20455;-71
2021/06/09 05:07:31;;;;;;;2.67;1.80;;;;;;;;;;5118952;28;20834;-70
2021/06/09 05:09:59;;;;;;;2.60;1.90;;;;;;;;;;5118102;28;20491;-71
2021/06/09 05:12:29;;;;;;;2.90;2.03;;;;;;;;;;5118751;28;20443;-70
2021/06/09 05:15:02;;;;;;;2.67;1.70;;;;;;;;;;5117583;28;20481;-70
2021/06/09 05:17:31;;;;;;;2.10;1.70;;;;;;;;;;5117144;28;20853;-70
2021/06/09 05:20:00;;;;;;;2.50;1.83;;;;;;;;;;5116730;28;20520;-70
2021/06/09 05:22:32;;;;;;;6.10;2.10;;;;;;;;;;5117379;27;20850;-71
2021/06/09 05:25:03;;;;;;;6.20;2.57;;;;;;;;;;5116714;28;20458;-71
2021/06/09 05:27:30;;;;;;;3.60;2.40;;;;;;;;;;5116565;28;20458;-70
2021/06/09 05:29:58;;;;;;;2.20;1.70;;;;;;;;;;5116554;28;20487;-71
2021/06/09 05:32:26;;;;;;;3.50;2.03;;;;;;;;;;5116738;28;20455;-71
2021/06/09 05:34:53;;;;;;;2.73;1.90;;;;;;;;;;5128156;27;20462;-71
2021/06/09 05:37:23;;;;;;;3.43;2.10;;;;;;;;;;5116320;28;20455;-71
2021/06/09 05:39:54;;;;;;;3.57;2.23;;;;;;;;;;5122379;27;20851;-71
2021/06/09 05:42:29;;;;;;;7.30;1.60;;;;;;;;;;5135844;27;20846;-71
2021/06/09 05:44:57;;;;;;;2.27;1.63;;;;;;;;;;5136845;27;20467;-71
2021/06/09 05:47:24;;;;;;;3.30;2.13;;;;;;;;;;5135362;27;20442;-71
2021/06/09 05:50:06;;;;;;;2.53;1.70;;;;;;;;;;5135740;27;20477;-71
2021/06/09 05:52:35;;;;;;;2.33;1.80;;;;;;;;;;5135770;27;20916;-71
2021/06/09 05:55:03;;;;;;;2.40;1.50;;;;;;;;;;5133403;27;20895;-70
2021/06/09 05:57:31;;;;;;;4.17;1.83;;;;;;;;;;5136050;27;20452;-70
2021/06/09 05:59:59;;;;;;;5.50;2.30;;;;;;;;;;5116337;28;20462;-69
2021/06/09 06:02:29;;;;;;;2.30;1.57;;;;;;;;;;5115700;28;20880;-70
2021/06/09 06:04:56;;;;;;;2.40;1.43;;;;;;;;;;5116682;28;21017;-70
2021/06/09 06:07:24;;;;;;;2.03;1.30;;;;;;;;;;5136722;27;20452;-70
2021/06/09 06:09:54;;;;;;;3.47;1.73;;;;;;;;;;5137026;27;20525;-70
2021/06/09 06:12:24;;;;;;;2.93;1.40;;;;;;;;;;5150557;27;20513;-70
2021/06/09 06:14:53;;;;;;;3.43;1.47;;;;;;;;;;5156496;27;20453;-69
2021/06/09 06:17:21;;;;;;;2.20;1.50;;;;;;;;;;5153427;27;20453;-69
2021/06/09 06:19:49;;;;;;;3.40;1.80;;;;;;;;;;5140340;27;20492;-70
2021/06/09 06:22:20;;;;;;;4.17;1.70;;;;;;;;;;5115838;28;20446;-69
2021/06/09 06:24:48;;;;;;;2.10;1.70;;;;;;;;;;5115269;28;20447;-69
2021/06/09 06:27:18;;;;;;;2.57;1.50;;;;;;;;;;5124945;27;20785;-69
2021/06/09 06:29:46;;;;;;;5.00;1.80;;;;;;;;;;5139032;27;20904;-70
2021/06/09 06:32:14;;;;;;;2.33;1.30;;;;;;;;;;5130008;27;20451;-69
2021/06/09 06:34:44;;;;;;;5.70;2.30;;;;;;;;;;5115830;28;20516;-69
2021/06/09 06:37:12;;;;;;;1.77;1.23;;;;;;;;;;5115589;28;20450;-69
2021/06/09 06:39:42;;;;;;;3.20;1.80;;;;;;;;;;5115863;28;20439;-69
2021/06/09 06:42:22;;;;;;;2.13;1.57;;;;;;;;;;5126675;27;20461;-69
2021/06/09 06:44:53;;;;;;;2.07;1.33;;;;;;;;;;5137076;27;20449;-70
2021/06/09 06:47:22;;;;;;;2.03;1.30;;;;;;;;;;5136840;27;20442;-69
2021/06/09 06:49:53;;;;;;;2.93;1.70;;;;;;;;;;5130947;27;21120;-70
2021/06/09 06:52:21;;;;;;;1.80;1.40;;;;;;;;;;5124943;27;20526;-70
2021/06/09 06:54:51;;;;;;;2.30;1.80;;;;;;;;;;5135850;27;20487;-70
2021/06/09 06:57:21;;;;;;;3.27;1.40;;;;;;;;;;5147040;27;20456;-70
2021/06/09 06:59:52;;;;;;;3.20;1.60;;;;;;;;;;5136207;27;21211;-71
2021/06/09 07:02:26;;;;;;;2.50;1.30;;;;;;;;;;5136943;27;20477;-70
2021/06/09 07:04:58;;;;;;;2.60;1.30;;;;;;;;;;5133885;27;20457;-70
2021/06/09 07:07:28;;;;;;;2.00;1.20;;;;;;;;;;5135514;27;20449;-70
2021/06/09 07:09:58;;;;;;;3.53;1.50;;;;;;;;;;5135288;27;20489;-69
2021/06/09 07:12:33;;;;;;;2.57;1.40;;;;;;;;;;5124954;27;20502;-70
2021/06/09 07:15:02;;;;;;;2.70;1.07;;;;;;;;;;5134747;27;20454;-70
2021/06/09 07:17:36;;;;;;;2.00;1.57;;;;;;;;;;5135531;27;20777;-70
2021/06/09 07:20:27;;;;;;;2.73;1.17;;;;;;;;;;5135097;27;20490;-70
2021/06/09 07:23:00;;;;;;;2.07;1.60;;;;;;;;;;5134429;27;20474;-71
2021/06/09 07:28:41;;;;;;;6.30;1.40;;;;;;;;;;5120983;27;20456;-70
2021/06/09 07:31:10;;;;;;;2.13;1.40;;;;;;;;;;5129182;28;20880;-71
2021/06/09 07:33:40;;;;;;;2.47;1.30;;;;;;;;;;5125217;28;20494;-70
2021/06/09 07:36:09;;;;;;;1.90;1.10;;;;;;;;;;5129619;27;20546;-70
2021/06/09 07:38:47;;;;;;;2.67;1.37;;;;;;;;;;5133728;28;20728;-70
2021/06/09 07:41:16;;;;;;;2.67;1.53;;;;;;;;;;5130083;27;20466;-70
2021/06/09 07:43:45;;;;;;;2.93;1.30;;;;;;;;;;5135938;27;20465;-71
2021/06/09 07:46:15;;;;;;;2.53;1.30;;;;;;;;;;5139369;27;20449;-72
2021/06/09 07:48:48;;;;;;;4.03;1.23;;;;;;;;;;5139055;27;20474;-71
2021/06/09 07:51:20;;;;;;;3.00;1.30;;;;;;;;;;5138505;27;20453;-72
2021/06/09 07:53:48;;;;;;;2.10;1.60;;;;;;;;;;5137702;27;20499;-71
2021/06/09 07:56:29;;;;;;;2.67;1.53;;;;;;;;;;5137830;27;20750;-71
2021/06/09 07:58:59;;;;;;;2.37;1.70;;;;;;;;;;5140181;27;20496;-71
2021/06/09 08:01:30;;;;;;;2.53;1.20;;;;;;;;;;5137675;27;20553;-71
2021/06/09 08:04:00;;;;;;;2.37;1.20;;;;;;;;;;5137579;27;20796;-71
2021/06/09 08:06:28;;;;;;;8.67;1.70;;;;;;;;;;5139194;27;20472;-71
2021/06/09 08:08:55;;;;;;;3.93;1.50;;;;;;;;;;5139506;27;20545;-71
2021/06/09 08:11:26;;;;;;;5.07;2.60;;;;;;;;;;5139126;27;20445;-71
2021/06/09 08:13:54;;;;;;;7.00;2.07;;;;;;;;;;5139416;27;20461;-71
2021/06/09 08:16:23;;;;;;;4.33;2.40;;;;;;;;;;5148396;27;20476;-71
2021/06/09 08:18:51;;;;;;;2.20;1.60;;;;;;;;;;5143433;27;20490;-71
2021/06/09 08:21:27;;;;;;;2.63;1.33;;;;;;;;;;5134926;27;20456;-70
2021/06/09 08:23:56;;;;;;;2.50;1.30;;;;;;;;;;5124513;27;20453;-70
2021/06/09 08:26:35;;;;;;;2.47;1.67;;;;;;;;;;5132795;27;20882;-72
2021/06/09 08:29:07;;;;;;;3.60;1.80;;;;;;;;;;5118522;28;20478;-71
2021/06/09 08:31:47;;;;;;;2.73;1.40;;;;;;;;;;5130870;27;20541;-72
2021/06/09 08:34:16;;;;;;;2.10;0.93;;;;;;;;;;5138941;27;20503;-71
2021/06/09 08:36:55;;;;;;;3.50;1.70;;;;;;;;;;5139026;27;20456;-70
2021/06/09 08:39:26;;;;;;;4.20;1.87;;;;;;;;;;5131302;27;20447;-71
2021/06/09 08:41:59;;;;;;;2.63;1.10;;;;;;;;;;5132512;27;20466;-72
2021/06/09 08:44:27;;;;;;;3.40;1.47;;;;;;;;;;5157365;27;20461;-71
2021/06/09 08:47:00;;;;;;;3.57;2.10;;;;;;;;;;5138692;27;20450;-70
2021/06/09 08:49:31;;;;;;;3.63;1.53;;;;;;;;;;5136670;27;20485;-69
2021/06/09 08:52:21;;;;;;;2.23;1.10;;;;;;;;;;5132310;27;20454;-70
2021/06/09 08:54:55;;;;;;;2.07;1.40;;;;;;;;;;5136186;27;20770;-70
2021/06/09 08:57:23;;;;;;;2.07;1.10;;;;;;;;;;5135496;27;20533;-69
2021/06/09 08:59:53;;;;;;;2.10;1.20;;;;;;;;;;5145164;27;20436;-70
2021/06/09 09:02:23;;;;;;;2.30;1.20;;;;;;;;;;5124684;27;20438;-70
2021/06/09 09:04:53;;;;;;;3.60;1.53;;;;;;;;;;5117894;28;20443;-71
2021/06/09 09:07:24;;;;;;;2.60;1.20;;;;;;;;;;5140313;27;20458;-71
2021/06/09 09:10:15;;;;;;;1.87;1.40;;;;;;;;;;5138205;27;20959;-70
2021/06/09 09:12:48;;;;;;;2.00;1.20;;;;;;;;;;5138147;27;20442;-70
2021/06/09 09:15:16;;;;;;;2.97;1.50;;;;;;;;;;5135533;27;20441;-71
2021/06/09 09:18:07;;;;;;;2.10;1.10;;;;;;;;;;5139321;27;20450;-71
2021/06/09 09:20:43;;;;;;;4.27;0.97;;;;;;;;;;5158535;27;20438;-71
2021/06/09 09:23:23;;;;;;;1.83;1.20;;;;;;;;;;5122146;27;20539;-71
2021/06/09 09:26:04;;;;;;;2.27;1.40;;;;;;;;;;5118500;27;21260;-71
2021/06/09 09:28:36;;;;;;;2.83;1.17;;;;;;;;;;5116309;27;20523;-69
2021/06/09 09:31:19;;;;;;;1.77;1.00;;;;;;;;;;5117692;27;20449;-71
2021/06/09 09:33:48;;;;;;;2.03;1.40;;;;;;;;;;5125817;27;20462;-69
2021/06/09 09:36:29;;;;;;;2.40;1.77;;;;;;;;;;5115456;27;20505;-70
2021/06/09 09:38:59;;;;;;;1.90;1.30;;;;;;;;;;5115072;27;21169;-70
2021/06/09 09:41:29;;;;;;;2.10;1.20;;;;;;;;;;5115071;27;20469;-69
2021/06/09 09:43:59;;;;;;;2.22;1.50;;;;;;;;;;5114729;27;21141;-69
2021/06/09 09:46:31;;;;;;;22.10;18.00;;;;;;;;;;5117210;27;20646;-70
2021/06/09 09:49:03;;;;;;;4.30;3.10;;;;;;;;;;5116323;27;20532;-70
2021/06/09 09:51:31;;;;;;;2.13;1.40;;;;;;;;;;5115907;27;20473;-69
2021/06/09 09:54:00;;;;;;;2.37;1.20;;;;;;;;;;5119751;27;20465;-69
2021/06/09 09:56:30;;;;;;;2.17;1.17;;;;;;;;;;5120918;27;20468;-70
2021/06/09 09:59:02;;;;;;;2.10;1.37;;;;;;;;;;5137676;27;20836;-69
2021/06/09 10:01:31;;;;;;;1.67;0.90;;;;;;;;;;5137701;27;20477;-70
2021/06/09 10:04:00;;;;;;;1.80;1.07;;;;;;;;;;5133768;27;20457;-70
2021/06/09 10:06:33;;;;;;;3.30;1.47;;;;;;;;;;5137640;27;20998;-70
2021/06/09 10:09:18;;;;;;;2.90;1.40;;;;;;;;;;5138804;27;20482;-72
2021/06/09 10:11:56;;;;;;;3.30;1.80;;;;;;;;;;5138178;27;20450;-71
2021/06/09 10:14:45;;;;;;;3.67;1.80;;;;;;;;;;5126468;27;20447;-71
2021/06/09 10:17:13;;;;;;;3.60;1.87;;;;;;;;;;5116803;28;20461;-70
2021/06/09 10:19:42;;;;;;;2.93;1.57;;;;;;;;;;5116754;28;20450;-71
2021/06/09 10:22:13;;;;;;;3.10;1.40;;;;;;;;;;5116572;28;20458;-70
2021/06/09 10:24:44;;;;;;;3.47;1.90;;;;;;;;;;5115983;28;20946;-70
2021/06/09 10:27:18;;;;;;;4.47;2.17;;;;;;;;;;5116018;28;20493;-70
2021/06/09 10:29:48;;;;;;;3.83;1.30;;;;;;;;;;5114893;28;20577;-70
2021/06/09 10:32:17;;;;;;;3.80;1.20;;;;;;;;;;5115442;28;20439;-72
2021/06/09 10:34:50;;;;;;;5.20;1.30;;;;;;;;;;5116777;27;20455;-70
2021/06/09 10:37:20;;;;;;;4.70;1.40;;;;;;;;;;5136460;27;20458;-69
2021/06/09 10:39:47;;;;;;;4.97;3.90;;;;;;;;;;5135669;27;20477;-70
2021/06/09 10:42:17;;;;;;;6.97;2.63;;;;;;;;;;5135960;27;20441;-69
2021/06/09 10:44:53;;;;;;;3.50;1.30;;;;;;;;;;5136501;27;20453;-71
2021/06/09 10:50:04;;;;;;;5.00;1.50;;;;;;;;;;5145673;27;20579;-71
2021/06/09 10:52:33;;;;;;;2.90;1.30;;;;;;;;;;5155054;27;20441;-70
2021/06/09 10:55:03;;;;;;;4.57;1.40;;;;;;;;;;5140529;27;20560;-70
2021/06/09 10:57:39;;;;;;;4.60;1.57;;;;;;;;;;5134674;27;20818;-70
2021/06/09 11:00:12;;;;;;;4.07;1.93;;;;;;;;;;5135187;27;20526;-70
2021/06/09 11:02:44;;;;;;;4.27;1.63;;;;;;;;;;5139057;27;20449;-72
2021/06/09 11:05:13;;;;;;;4.83;1.93;;;;;;;;;;5147425;27;20450;-70
2021/06/09 11:07:52;;;;;;;3.77;1.60;;;;;;;;;;5135777;27;20453;-70
2021/06/09 11:10:37;;;;;;;3.50;1.60;;;;;;;;;;5115951;27;20552;-70
2021/06/09 11:13:06;;;;;;;3.00;1.40;;;;;;;;;;5128397;27;20500;-69
2021/06/09 11:15:41;;;;;;;2.90;1.60;;;;;;;;;;5134848;27;20976;-71
2021/06/09 11:18:17;;;;;;;3.40;1.33;;;;;;;;;;5134898;27;20441;-73
2021/06/09 11:21:02;;;;;;;6.50;4.20;;;;;;;;;;5115790;28;20530;-73
2021/06/09 11:23:33;;;;;;;3.03;1.30;;;;;;;;;;5128575;27;20811;-71
2021/06/09 11:26:02;;;;;;;3.40;1.50;;;;;;;;;;5134409;27;20452;-71
2021/06/09 11:28:36;;;;;;;4.10;1.43;;;;;;;;;;5133993;27;20881;-71
2021/06/09 11:31:09;;;;;;;8.80;5.47;;;;;;;;;;5133946;27;20525;-71
2021/06/09 11:33:39;;;;;;;4.40;2.17;;;;;;;;;;5149138;27;20460;-71
2021/06/09 11:36:31;;;;;;;6.47;1.70;;;;;;;;;;5155604;27;20468;-71
2021/06/09 11:39:10;;;;;;;3.37;1.67;;;;;;;;;;5146092;27;20530;-72
2021/06/09 11:41:42;;;;;;;5.67;1.57;;;;;;;;;;5130541;27;20446;-70
2021/06/09 11:44:24;;;;;;;5.13;1.73;;;;;;;;;;5141098;27;20450;-71
2021/06/09 11:47:17;;;;;;;4.73;1.67;;;;;;;;;;5134485;27;20449;-72
2021/06/09 11:49:49;;;;;;;3.60;1.47;;;;;;;;;;5112847;28;20871;-71
2021/06/09 11:52:20;;;;;;;3.47;1.73;;;;;;;;;;5113836;28;20453;-72
2021/06/09 11:54:48;;;;;;;3.23;1.17;;;;;;;;;;5125353;28;20873;-73
2021/06/09 11:57:21;;;;;;;6.83;2.27;;;;;;;;;;5134500;27;21249;-70
2021/06/09 11:59:50;;;;;;;3.70;1.70;;;;;;;;;;5125965;27;20458;-70
2021/06/09 12:02:28;;;;;;;3.40;1.30;;;;;;;;;;5153020;27;20541;-71
2021/06/09 12:04:58;;;;;;;2.80;1.37;;;;;;;;;;5155589;27;20563;-69
2021/06/09 12:07:28;;;;;;;7.23;1.50;;;;;;;;;;5154801;27;20730;-70
2021/06/09 12:09:59;;;;;;;3.10;1.60;;;;;;;;;;5144826;27;20901;-70
2021/06/09 12:12:36;;;;;;;4.50;1.63;;;;;;;;;;5134581;27;20446;-72
2021/06/09 12:15:07;;;;;;;3.90;2.20;;;;;;;;;;5136373;27;20465;-72
2021/06/09 12:17:41;;;;;;;7.10;2.27;;;;;;;;;;5140750;27;20452;-71
2021/06/09 12:20:12;;;;;;;3.37;1.40;;;;;;;;;;5134238;27;20802;-71
2021/06/09 12:22:42;;;;;;;2.93;1.23;;;;;;;;;;5131691;27;20489;-70
2021/06/09 12:25:17;;;;;;;3.57;1.27;;;;;;;;;;5132833;27;20481;-70
2021/06/09 12:28:00;;;;;;;4.40;1.20;;;;;;;;;;5133839;27;20720;-72
2021/06/09 12:30:38;;;;;;;3.50;1.50;;;;;;;;;;5135555;27;20525;-70
2021/06/09 12:33:15;;;;;;;3.93;1.57;;;;;;;;;;5131703;27;20725;-71
2021/06/09 12:35:49;;;;;;;3.10;1.40;;;;;;;;;;5130323;27;20453;-70
2021/06/09 12:38:20;;;;;;;2.90;1.30;;;;;;;;;;5135404;27;20515;-71
2021/06/09 12:41:03;;;;;;;4.50;1.87;;;;;;;;;;5137234;27;20446;-71
2021/06/09 12:43:36;;;;;;;3.03;1.20;;;;;;;;;;5145621;27;20446;-70
2021/06/09 12:46:03;;;;;;;3.10;1.30;;;;;;;;;;5138636;27;20556;-72
2021/06/09 12:48:36;;;;;;;3.30;1.43;;;;;;;;;;5138782;27;20890;-71
2021/06/09 12:51:04;;;;;;;6.90;1.97;;;;;;;;;;5137991;27;20449;-72
2021/06/09 12:53:33;;;;;;;3.80;1.83;;;;;;;;;;5138266;27;20442;-72
2021/06/09 12:56:02;;;;;;;6.13;2.10;;;;;;;;;;5138735;27;21052;-71
2021/06/09 12:58:33;;;;;;;3.07;1.53;;;;;;;;;;5138586;27;20884;-72
2021/06/09 13:01:03;;;;;;;3.20;1.83;;;;;;;;;;5138235;27;20733;-70
2021/06/09 13:03:33;;;;;;;3.47;1.33;;;;;;;;;;5135874;27;20484;-70
2021/06/09 13:06:06;;;;;;;6.80;1.70;;;;;;;;;;5137171;27;20456;-70
2021/06/09 13:08:35;;;;;;;3.40;1.53;;;;;;;;;;5138540;27;21037;-70
2021/06/09 13:11:06;;;;;;;3.10;1.70;;;;;;;;;;5137869;27;20763;-72
2021/06/09 13:13:35;;;;;;;8.33;1.97;;;;;;;;;;5138117;27;20505;-71
2021/06/09 13:16:05;;;;;;;4.20;2.10;;;;;;;;;;5137051;27;20937;-70
2021/06/09 13:18:43;;;;;;;3.93;2.10;;;;;;;;;;5137220;27;20466;-69
2021/06/09 13:21:18;;;;;;;3.80;2.10;;;;;;;;;;5137837;27;20445;-71
2021/06/09 13:23:48;;;;;;;3.67;2.10;;;;;;;;;;5137905;27;20441;-70
2021/06/09 13:26:17;;;;;;;6.90;2.10;;;;;;;;;;5137344;27;20481;-71
2021/06/09 13:28:45;;;;;;;3.20;1.60;;;;;;;;;;5136236;27;20542;-72
2021/06/09 13:31:17;;;;;;;3.30;1.70;;;;;;;;;;5117303;28;21122;-70
2021/06/09 13:34:01;;;;;;;8.67;1.90;;;;;;;;;;5137363;27;20457;-71
2021/06/09 13:36:38;;;;;;;3.07;1.63;;;;;;;;;;5134625;27;20457;-71
2021/06/09 13:39:09;;;;;;;4.07;2.20;;;;;;;;;;5136376;27;20457;-71
2021/06/09 13:41:42;;;;;;;10.37;8.20;;;;;;;;;;5135647;27;20446;-73
2021/06/09 13:44:11;;;;;;;3.10;1.60;;;;;;;;;;5137441;27;20453;-74
2021/06/09 13:46:57;;;;;;;3.30;1.80;;;;;;;;;;5137073;27;20514;-72
2021/06/09 13:49:31;;;;;;;4.13;2.20;;;;;;;;;;5149672;27;20587;-72
2021/06/09 13:52:07;;;;;;;5.40;1.80;;;;;;;;;;5146854;27;20456;-73
2021/06/09 13:54:40;;;;;;;3.40;2.00;;;;;;;;;;5137046;27;20450;-73
2021/06/09 13:57:12;;;;;;;3.20;1.40;;;;;;;;;;5136938;27;20441;-72
2021/06/09 14:00:00;;;;;;;4.10;2.17;;;;;;;;;;5136722;27;20807;-73
2021/06/09 14:02:35;;;;;;;4.57;1.80;;;;;;;;;;5137747;27;20442;-72
2021/06/09 14:05:13;;;;;;;3.93;2.10;;;;;;;;;;5137727;27;20465;-72
2021/06/09 14:07:47;;;;;;;3.20;1.73;;;;;;;;;;5136346;27;20450;-72
2021/06/09 14:10:22;;;;;;;5.20;2.30;;;;;;;;;;5134562;27;20612;-72
2021/06/09 14:12:58;;;;;;;3.97;1.70;;;;;;;;;;5129606;27;20508;-73
2021/06/09 14:15:28;;;;;;;3.97;1.77;;;;;;;;;;5133778;27;20465;-74
2021/06/09 14:17:56;;;;;;;3.33;1.87;;;;;;;;;;5138296;27;20701;-71
2021/06/09 14:20:27;;;;;;;3.03;1.73;;;;;;;;;;5138890;27;20537;-71
2021/06/09 14:23:11;;;;;;;6.00;2.10;;;;;;;;;;5136392;27;20497;-71
2021/06/09 14:25:44;;;;;;;3.60;2.00;;;;;;;;;;5134214;27;20556;-71
2021/06/09 14:28:12;;;;;;;4.57;2.17;;;;;;;;;;5135445;27;20491;-71
2021/06/09 14:30:44;;;;;;;3.30;1.63;;;;;;;;;;5137513;27;20474;-73
2021/06/09 14:33:23;;;;;;;3.73;1.57;;;;;;;;;;5136201;27;20835;-72
2021/06/09 14:36:02;;;;;;;4.33;2.30;;;;;;;;;;5134584;27;20734;-71
2021/06/09 14:38:38;;;;;;;7.53;2.00;;;;;;;;;;5134498;27;20973;-71
2021/06/09 14:41:16;;;;;;;3.70;2.23;;;;;;;;;;5136854;27;20461;-71
2021/06/09 14:43:57;;;;;;;3.90;2.40;;;;;;;;;;5138872;27;20463;-72
2021/06/09 14:46:28;;;;;;;4.23;2.23;;;;;;;;;;5148134;27;20755;-72
2021/06/09 14:48:56;;;;;;;4.30;2.23;;;;;;;;;;5141457;27;20442;-71
2021/06/09 14:51:29;;;;;;;4.93;2.17;;;;;;;;;;5134856;27;20469;-70
2021/06/09 14:54:04;;;;;;;3.20;2.10;;;;;;;;;;5131628;27;20449;-70
2021/06/09 14:56:35;;;;;;;5.30;2.70;;;;;;;;;;5148316;27;20879;-72
2021/06/09 14:59:08;;;;;;;4.30;2.20;;;;;;;;;;5130926;27;20458;-71
2021/06/09 15:01:41;;;;;;;3.90;2.13;;;;;;;;;;5134503;27;20870;-72
2021/06/09 15:04:14;;;;;;;4.60;2.00;;;;;;;;;;5129021;27;20470;-72
2021/06/09 15:06:47;;;;;;;4.73;2.00;;;;;;;;;;5115228;27;20718;-72
2021/06/09 15:09:17;;;;;;;3.80;2.00;;;;;;;;;;5115099;28;20746;-71
2021/06/09 15:11:46;;;;;;;12.83;11.10;;;;;;;;;;5115557;28;20447;-73
2021/06/09 15:14:14;;;;;;;5.20;2.80;;;;;;;;;;5122690;27;20781;-71